sensor_id;sensor_type;location;lat;lon;timestamp;temperature;humidity
19060;DHT22;9663;48.996;8.334;2023-08-08T00:01:06;18.10;50.90
19060;DHT22;9663;48.996;8.334;2023-08-08T00:03:32;18.10;51.00
19060;DHT22;9663;48.996;8.334;2023-08-08T00:05:59;18.10;51.10
19060;DHT22;9663;48.996;8.334;2023-08-08T00:08:25;18.10;51.10
19060;DHT22;9663;48.996;8.334;2023-08-08T00:10:51;18.10;51.10
19060;DHT22;9663;48.996;8.334;2023-08-08T00:13:16;18.10;51.10
19060;DHT22;9663;48.996;8.334;2023-08-08T00:15:42;18.10;51.20
19060;DHT22;9663;48.996;8.334;2023-08-08T00:18:08;18.20;51.20
19060;DHT22;9663;48.996;8.334;2023-08-08T00:20:34;18.20;51.20
19060;DHT22;9663;48.996;8.334;2023-08-08T00:22:59;18.20;51.30
19060;DHT22;9663;48.996;8.334;2023-08-08T00:25:25;18.20;51.30
19060;DHT22;9663;48.996;8.334;2023-08-08T00:27:51;18.20;51.40
19060;DHT22;9663;48.996;8.334;2023-08-08T00:30:17;18.30;51.40
19060;DHT22;9663;48.996;8.334;2023-08-08T00:32:42;18.30;51.40
19060;DHT22;9663;48.996;8.334;2023-08-08T00:35:09;18.30;51.40
19060;DHT22;9663;48.996;8.334;2023-08-08T00:37:35;18.30;51.50
19060;DHT22;9663;48.996;8.334;2023-08-08T00:40:00;18.40;51.50
19060;DHT22;9663;48.996;8.334;2023-08-08T00:42:26;18.40;51.50
19060;DHT22;9663;48.996;8.334;2023-08-08T00:44:52;18.40;51.50
19060;DHT22;9663;48.996;8.334;2023-08-08T00:47:17;18.40;51.40
19060;DHT22;9663;48.996;8.334;2023-08-08T00:49:45;18.40;51.40
19060;DHT22;9663;48.996;8.334;2023-08-08T00:52:13;18.40;51.40
19060;DHT22;9663;48.996;8.334;2023-08-08T00:54:40;18.40;51.50
19060;DHT22;9663;48.996;8.334;2023-08-08T00:57:06;18.30;51.50
19060;DHT22;9663;48.996;8.334;2023-08-08T00:59:31;18.30;51.50
19060;DHT22;9663;48.996;8.334;2023-08-08T01:01:58;18.20;51.50
19060;DHT22;9663;48.996;8.334;2023-08-08T01:04:26;18.20;51.60
19060;DHT22;9663;48.996;8.334;2023-08-08T01:09:55;18.10;51.90
19060;DHT22;9663;48.996;8.334;2023-08-08T01:12:24;18.10;52.20
19060;DHT22;9663;48.996;8.334;2023-08-08T01:14:51;18.00;52.00
19060;DHT22;9663;48.996;8.334;2023-08-08T01:17:18;17.90;52.00
19060;DHT22;9663;48.996;8.334;2023-08-08T01:19:45;17.90;52.10
19060;DHT22;9663;48.996;8.334;2023-08-08T01:22:26;17.80;52.10
19060;DHT22;9663;48.996;8.334;2023-08-08T01:24:58;17.80;52.60
19060;DHT22;9663;48.996;8.334;2023-08-08T01:27:24;17.80;52.40
19060;DHT22;9663;48.996;8.334;2023-08-08T01:29:50;17.70;52.40
19060;DHT22;9663;48.996;8.334;2023-08-08T01:32:16;17.70;52.60
19060;DHT22;9663;48.996;8.334;2023-08-08T01:34:42;17.70;52.70
19060;DHT22;9663;48.996;8.334;2023-08-08T01:37:18;17.70;52.70
19060;DHT22;9663;48.996;8.334;2023-08-08T01:39:48;17.70;53.10
19060;DHT22;9663;48.996;8.334;2023-08-08T01:42:16;17.70;52.80
19060;DHT22;9663;48.996;8.334;2023-08-08T01:44:46;17.70;52.80
19060;DHT22;9663;48.996;8.334;2023-08-08T01:47:13;17.70;52.90
19060;DHT22;9663;48.996;8.334;2023-08-08T01:49:39;17.70;52.90
19060;DHT22;9663;48.996;8.334;2023-08-08T01:52:04;17.60;52.80
19060;DHT22;9663;48.996;8.334;2023-08-08T01:54:30;17.60;52.90
19060;DHT22;9663;48.996;8.334;2023-08-08T01:56:56;17.60;53.10
19060;DHT22;9663;48.996;8.334;2023-08-08T01:59:22;17.60;53.10
19060;DHT22;9663;48.996;8.334;2023-08-08T02:01:48;17.50;53.20
19060;DHT22;9663;48.996;8.334;2023-08-08T02:04:13;17.50;53.20
19060;DHT22;9663;48.996;8.334;2023-08-08T02:06:39;17.40;53.20
19060;DHT22;9663;48.996;8.334;2023-08-08T02:09:05;17.40;53.40
19060;DHT22;9663;48.996;8.334;2023-08-08T02:11:31;17.40;53.50
19060;DHT22;9663;48.996;8.334;2023-08-08T02:13:57;17.40;53.60
19060;DHT22;9663;48.996;8.334;2023-08-08T02:16:22;17.40;53.70
19060;DHT22;9663;48.996;8.334;2023-08-08T02:18:48;17.40;53.70
19060;DHT22;9663;48.996;8.334;2023-08-08T02:21:14;17.40;53.80
19060;DHT22;9663;48.996;8.334;2023-08-08T02:23:40;17.40;53.80
19060;DHT22;9663;48.996;8.334;2023-08-08T02:26:06;17.40;53.90
19060;DHT22;9663;48.996;8.334;2023-08-08T02:28:31;17.40;53.90
19060;DHT22;9663;48.996;8.334;2023-08-08T02:30:57;17.40;53.90
19060;DHT22;9663;48.996;8.334;2023-08-08T02:33:23;17.40;53.90
19060;DHT22;9663;48.996;8.334;2023-08-08T02:35:48;17.50;53.90
19060;DHT22;9663;48.996;8.334;2023-08-08T02:38:14;17.40;53.90
19060;DHT22;9663;48.996;8.334;2023-08-08T02:40:40;17.40;53.90
19060;DHT22;9663;48.996;8.334;2023-08-08T02:43:05;17.40;54.00
19060;DHT22;9663;48.996;8.334;2023-08-08T02:45:31;17.40;54.00
19060;DHT22;9663;48.996;8.334;2023-08-08T02:47:56;17.50;54.10
19060;DHT22;9663;48.996;8.334;2023-08-08T02:50:22;17.50;54.10
19060;DHT22;9663;48.996;8.334;2023-08-08T02:52:48;17.40;54.20
19060;DHT22;9663;48.996;8.334;2023-08-08T02:55:14;17.40;54.20
19060;DHT22;9663;48.996;8.334;2023-08-08T02:57:40;17.50;54.30
19060;DHT22;9663;48.996;8.334;2023-08-08T03:00:06;17.40;54.20
19060;DHT22;9663;48.996;8.334;2023-08-08T03:02:33;17.50;54.30
19060;DHT22;9663;48.996;8.334;2023-08-08T03:04:59;17.50;54.30
19060;DHT22;9663;48.996;8.334;2023-08-08T03:07:25;17.50;54.40
19060;DHT22;9663;48.996;8.334;2023-08-08T03:09:50;17.50;54.40
19060;DHT22;9663;48.996;8.334;2023-08-08T03:12:16;17.60;54.50
19060;DHT22;9663;48.996;8.334;2023-08-08T03:14:42;17.60;54.40
19060;DHT22;9663;48.996;8.334;2023-08-08T03:17:07;17.60;54.40
19060;DHT22;9663;48.996;8.334;2023-08-08T03:19:33;17.70;55.10
19060;DHT22;9663;48.996;8.334;2023-08-08T03:21:58;17.70;54.50
19060;DHT22;9663;48.996;8.334;2023-08-08T03:24:24;17.70;54.50
19060;DHT22;9663;48.996;8.334;2023-08-08T03:26:50;17.80;54.50
19060;DHT22;9663;48.996;8.334;2023-08-08T03:29:15;17.80;54.50
19060;DHT22;9663;48.996;8.334;2023-08-08T03:31:41;17.90;54.60
19060;DHT22;9663;48.996;8.334;2023-08-08T03:34:07;17.90;54.50
19060;DHT22;9663;48.996;8.334;2023-08-08T03:36:32;17.90;54.50
19060;DHT22;9663;48.996;8.334;2023-08-08T03:38:58;17.90;54.40
19060;DHT22;9663;48.996;8.334;2023-08-08T03:41:24;17.80;54.40
19060;DHT22;9663;48.996;8.334;2023-08-08T03:43:50;17.90;54.50
19060;DHT22;9663;48.996;8.334;2023-08-08T03:46:15;17.80;54.40
19060;DHT22;9663;48.996;8.334;2023-08-08T03:48:41;17.80;54.50
19060;DHT22;9663;48.996;8.334;2023-08-08T03:51:06;17.80;54.60
19060;DHT22;9663;48.996;8.334;2023-08-08T03:53:32;17.80;54.60
19060;DHT22;9663;48.996;8.334;2023-08-08T03:55:58;17.80;54.80
19060;DHT22;9663;48.996;8.334;2023-08-08T03:58:24;17.80;54.80
19060;DHT22;9663;48.996;8.334;2023-08-08T04:00:49;17.80;54.80
19060;DHT22;9663;48.996;8.334;2023-08-08T04:03:16;17.80;54.80
19060;DHT22;9663;48.996;8.334;2023-08-08T04:05:46;17.80;54.80
19060;DHT22;9663;48.996;8.334;2023-08-08T04:08:13;17.80;55.00
19060;DHT22;9663;48.996;8.334;2023-08-08T04:10:39;17.70;54.80
19060;DHT22;9663;48.996;8.334;2023-08-08T04:13:05;17.70;54.90
19060;DHT22;9663;48.996;8.334;2023-08-08T04:15:31;17.70;54.90
19060;DHT22;9663;48.996;8.334;2023-08-08T04:17:56;17.60;54.90
19060;DHT22;9663;48.996;8.334;2023-08-08T04:20:22;17.70;55.00
19060;DHT22;9663;48.996;8.334;2023-08-08T04:22:48;17.60;55.00
19060;DHT22;9663;48.996;8.334;2023-08-08T04:25:14;17.60;55.10
19060;DHT22;9663;48.996;8.334;2023-08-08T04:27:40;17.60;55.20
19060;DHT22;9663;48.996;8.334;2023-08-08T04:30:07;17.50;55.20
19060;DHT22;9663;48.996;8.334;2023-08-08T04:32:33;17.50;55.30
19060;DHT22;9663;48.996;8.334;2023-08-08T04:34:58;17.50;56.00
19060;DHT22;9663;48.996;8.334;2023-08-08T04:37:24;17.50;55.40
19060;DHT22;9663;48.996;8.334;2023-08-08T04:39:50;17.50;55.50
19060;DHT22;9663;48.996;8.334;2023-08-08T04:42:15;17.50;55.50
19060;DHT22;9663;48.996;8.334;2023-08-08T04:44:41;17.50;55.50
19060;DHT22;9663;48.996;8.334;2023-08-08T04:47:07;17.50;55.60
19060;DHT22;9663;48.996;8.334;2023-08-08T04:49:32;17.50;55.60
19060;DHT22;9663;48.996;8.334;2023-08-08T04:51:58;17.50;55.60
19060;DHT22;9663;48.996;8.334;2023-08-08T04:54:24;17.50;55.70
19060;DHT22;9663;48.996;8.334;2023-08-08T04:56:49;17.50;55.80
19060;DHT22;9663;48.996;8.334;2023-08-08T04:59:15;17.50;55.80
19060;DHT22;9663;48.996;8.334;2023-08-08T05:01:40;17.40;55.90
19060;DHT22;9663;48.996;8.334;2023-08-08T05:04:06;17.40;55.80
19060;DHT22;9663;48.996;8.334;2023-08-08T05:06:32;17.50;55.90
19060;DHT22;9663;48.996;8.334;2023-08-08T05:08:57;17.50;56.00
19060;DHT22;9663;48.996;8.334;2023-08-08T05:11:23;17.40;56.00
19060;DHT22;9663;48.996;8.334;2023-08-08T05:13:49;17.50;56.00
19060;DHT22;9663;48.996;8.334;2023-08-08T05:16:15;17.50;56.00
19060;DHT22;9663;48.996;8.334;2023-08-08T05:18:40;17.50;56.00
19060;DHT22;9663;48.996;8.334;2023-08-08T05:21:09;17.50;56.00
19060;DHT22;9663;48.996;8.334;2023-08-08T05:23:35;17.60;56.20
19060;DHT22;9663;48.996;8.334;2023-08-08T05:26:00;17.60;56.10
19060;DHT22;9663;48.996;8.334;2023-08-08T05:28:26;17.60;56.20
19060;DHT22;9663;48.996;8.334;2023-08-08T05:30:52;17.60;56.10
19060;DHT22;9663;48.996;8.334;2023-08-08T05:33:18;17.60;56.10
19060;DHT22;9663;48.996;8.334;2023-08-08T05:35:44;17.70;56.20
19060;DHT22;9663;48.996;8.334;2023-08-08T05:38:09;17.70;56.20
19060;DHT22;9663;48.996;8.334;2023-08-08T05:40:35;17.80;56.20
19060;DHT22;9663;48.996;8.334;2023-08-08T05:43:02;17.80;56.20
19060;DHT22;9663;48.996;8.334;2023-08-08T05:45:28;17.80;56.20
19060;DHT22;9663;48.996;8.334;2023-08-08T05:47:54;17.90;56.20
19060;DHT22;9663;48.996;8.334;2023-08-08T05:50:20;18.00;56.20
19060;DHT22;9663;48.996;8.334;2023-08-08T05:52:46;18.00;56.20
19060;DHT22;9663;48.996;8.334;2023-08-08T05:55:12;18.10;56.20
19060;DHT22;9663;48.996;8.334;2023-08-08T05:57:37;18.20;56.20
19060;DHT22;9663;48.996;8.334;2023-08-08T06:00:04;18.20;56.30
19060;DHT22;9663;48.996;8.334;2023-08-08T06:02:31;18.30;56.20
19060;DHT22;9663;48.996;8.334;2023-08-08T06:04:56;18.40;56.10
19060;DHT22;9663;48.996;8.334;2023-08-08T06:07:23;18.50;56.10
19060;DHT22;9663;48.996;8.334;2023-08-08T06:09:49;18.50;56.10
19060;DHT22;9663;48.996;8.334;2023-08-08T06:12:14;18.60;55.90
19060;DHT22;9663;48.996;8.334;2023-08-08T06:14:40;18.70;55.90
19060;DHT22;9663;48.996;8.334;2023-08-08T06:17:06;18.70;55.80
19060;DHT22;9663;48.996;8.334;2023-08-08T06:19:31;18.80;55.80
19060;DHT22;9663;48.996;8.334;2023-08-08T06:21:57;18.80;55.80
19060;DHT22;9663;48.996;8.334;2023-08-08T06:24:23;18.90;55.80
19060;DHT22;9663;48.996;8.334;2023-08-08T06:26:48;19.00;55.80
19060;DHT22;9663;48.996;8.334;2023-08-08T06:29:14;19.10;55.90
19060;DHT22;9663;48.996;8.334;2023-08-08T06:31:40;19.10;55.70
19060;DHT22;9663;48.996;8.334;2023-08-08T06:34:06;19.20;55.60
19060;DHT22;9663;48.996;8.334;2023-08-08T06:36:31;19.30;55.60
19060;DHT22;9663;48.996;8.334;2023-08-08T06:38:57;19.40;55.50
19060;DHT22;9663;48.996;8.334;2023-08-08T06:41:23;19.50;55.40
19060;DHT22;9663;48.996;8.334;2023-08-08T06:43:48;19.50;55.30
19060;DHT22;9663;48.996;8.334;2023-08-08T06:46:14;19.60;55.30
19060;DHT22;9663;48.996;8.334;2023-08-08T06:48:42;19.70;55.30
19060;DHT22;9663;48.996;8.334;2023-08-08T06:51:09;19.80;55.20
19060;DHT22;9663;48.996;8.334;2023-08-08T06:53:34;19.90;55.10
19060;DHT22;9663;48.996;8.334;2023-08-08T06:56:00;20.00;55.00
19060;DHT22;9663;48.996;8.334;2023-08-08T06:58:26;20.10;55.00
19060;DHT22;9663;48.996;8.334;2023-08-08T07:00:52;20.20;54.80
19060;DHT22;9663;48.996;8.334;2023-08-08T07:03:17;20.20;54.80
19060;DHT22;9663;48.996;8.334;2023-08-08T07:05:43;20.30;54.50
19060;DHT22;9663;48.996;8.334;2023-08-08T07:08:09;20.30;54.40
19060;DHT22;9663;48.996;8.334;2023-08-08T07:10:35;20.30;54.30
19060;DHT22;9663;48.996;8.334;2023-08-08T07:13:01;20.40;54.40
19060;DHT22;9663;48.996;8.334;2023-08-08T07:15:27;20.40;54.30
19060;DHT22;9663;48.996;8.334;2023-08-08T07:17:53;20.50;54.30
19060;DHT22;9663;48.996;8.334;2023-08-08T07:20:19;20.50;54.20
19060;DHT22;9663;48.996;8.334;2023-08-08T07:22:45;20.60;54.30
19060;DHT22;9663;48.996;8.334;2023-08-08T07:25:10;20.70;54.30
19060;DHT22;9663;48.996;8.334;2023-08-08T07:27:39;20.70;54.20
19060;DHT22;9663;48.996;8.334;2023-08-08T07:30:05;20.80;54.10
19060;DHT22;9663;48.996;8.334;2023-08-08T07:32:33;20.90;54.00
19060;DHT22;9663;48.996;8.334;2023-08-08T07:34:58;20.90;53.90
19060;DHT22;9663;48.996;8.334;2023-08-08T07:37:26;21.00;54.30
19060;DHT22;9663;48.996;8.334;2023-08-08T07:39:52;21.10;53.90
19060;DHT22;9663;48.996;8.334;2023-08-08T07:42:18;21.10;53.90
19060;DHT22;9663;48.996;8.334;2023-08-08T07:44:43;21.20;53.70
19060;DHT22;9663;48.996;8.334;2023-08-08T07:47:09;21.20;53.60
19060;DHT22;9663;48.996;8.334;2023-08-08T07:49:34;21.30;53.50
19060;DHT22;9663;48.996;8.334;2023-08-08T07:52:00;21.30;53.50
19060;DHT22;9663;48.996;8.334;2023-08-08T07:54:26;21.30;53.30
19060;DHT22;9663;48.996;8.334;2023-08-08T07:56:51;21.40;53.40
19060;DHT22;9663;48.996;8.334;2023-08-08T07:59:17;21.50;53.70
19060;DHT22;9663;48.996;8.334;2023-08-08T08:01:43;21.50;53.40
19060;DHT22;9663;48.996;8.334;2023-08-08T08:04:08;21.50;53.10
19060;DHT22;9663;48.996;8.334;2023-08-08T08:06:34;21.50;53.00
19060;DHT22;9663;48.996;8.334;2023-08-08T08:09:00;21.60;53.10
19060;DHT22;9663;48.996;8.334;2023-08-08T08:11:25;21.60;53.10
19060;DHT22;9663;48.996;8.334;2023-08-08T08:13:51;21.70;53.00
19060;DHT22;9663;48.996;8.334;2023-08-08T08:16:17;21.70;53.20
19060;DHT22;9663;48.996;8.334;2023-08-08T08:18:42;21.80;53.00
19060;DHT22;9663;48.996;8.334;2023-08-08T08:21:08;21.90;53.00
19060;DHT22;9663;48.996;8.334;2023-08-08T08:23:34;22.00;52.90
19060;DHT22;9663;48.996;8.334;2023-08-08T08:26:00;22.10;52.70
19060;DHT22;9663;48.996;8.334;2023-08-08T08:28:26;22.20;52.40
19060;DHT22;9663;48.996;8.334;2023-08-08T08:30:52;22.20;52.40
19060;DHT22;9663;48.996;8.334;2023-08-08T08:33:18;22.30;52.40
19060;DHT22;9663;48.996;8.334;2023-08-08T08:35:43;22.30;52.30
19060;DHT22;9663;48.996;8.334;2023-08-08T08:38:10;22.30;52.20
19060;DHT22;9663;48.996;8.334;2023-08-08T08:40:38;22.50;52.50
19060;DHT22;9663;48.996;8.334;2023-08-08T08:43:07;22.50;52.60
19060;DHT22;9663;48.996;8.334;2023-08-08T08:45:37;22.60;52.40
19060;DHT22;9663;48.996;8.334;2023-08-08T08:48:09;22.80;52.20
19060;DHT22;9663;48.996;8.334;2023-08-08T08:50:37;22.90;52.10
19060;DHT22;9663;48.996;8.334;2023-08-08T08:53:05;22.90;51.70
19060;DHT22;9663;48.996;8.334;2023-08-08T08:55:31;23.00;51.90
19060;DHT22;9663;48.996;8.334;2023-08-08T08:57:57;23.10;51.70
19060;DHT22;9663;48.996;8.334;2023-08-08T09:00:23;23.10;51.60
19060;DHT22;9663;48.996;8.334;2023-08-08T09:02:51;23.10;51.40
19060;DHT22;9663;48.996;8.334;2023-08-08T09:05:18;23.10;51.40
19060;DHT22;9663;48.996;8.334;2023-08-08T09:07:47;23.20;51.50
19060;DHT22;9663;48.996;8.334;2023-08-08T09:10:15;23.20;51.60
19060;DHT22;9663;48.996;8.334;2023-08-08T09:12:42;23.40;51.60
19060;DHT22;9663;48.996;8.334;2023-08-08T09:15:08;23.50;51.40
19060;DHT22;9663;48.996;8.334;2023-08-08T09:17:35;23.60;51.30
19060;DHT22;9663;48.996;8.334;2023-08-08T09:20:01;23.70;51.20
19060;DHT22;9663;48.996;8.334;2023-08-08T09:22:26;23.80;51.00
19060;DHT22;9663;48.996;8.334;2023-08-08T09:24:54;23.90;50.80
19060;DHT22;9663;48.996;8.334;2023-08-08T09:27:20;24.00;51.00
19060;DHT22;9663;48.996;8.334;2023-08-08T09:29:46;24.10;50.70
19060;DHT22;9663;48.996;8.334;2023-08-08T09:32:12;24.20;50.50
19060;DHT22;9663;48.996;8.334;2023-08-08T09:34:43;24.20;50.20
19060;DHT22;9663;48.996;8.334;2023-08-08T09:37:09;24.30;50.10
19060;DHT22;9663;48.996;8.334;2023-08-08T09:39:36;24.40;50.00
19060;DHT22;9663;48.996;8.334;2023-08-08T09:42:03;24.40;50.10
19060;DHT22;9663;48.996;8.334;2023-08-08T09:44:31;24.50;50.10
19060;DHT22;9663;48.996;8.334;2023-08-08T09:47:00;24.60;49.80
19060;DHT22;9663;48.996;8.334;2023-08-08T09:49:27;24.70;49.70
19060;DHT22;9663;48.996;8.334;2023-08-08T09:51:54;24.80;49.70
19060;DHT22;9663;48.996;8.334;2023-08-08T09:54:20;24.90;49.30
19060;DHT22;9663;48.996;8.334;2023-08-08T09:56:48;25.00;49.30
19060;DHT22;9663;48.996;8.334;2023-08-08T09:59:17;25.00;49.10
19060;DHT22;9663;48.996;8.334;2023-08-08T10:01:44;25.10;48.80
19060;DHT22;9663;48.996;8.334;2023-08-08T10:04:12;25.10;48.50
19060;DHT22;9663;48.996;8.334;2023-08-08T10:06:38;25.10;48.50
19060;DHT22;9663;48.996;8.334;2023-08-08T10:09:04;25.00;48.20
19060;DHT22;9663;48.996;8.334;2023-08-08T10:11:31;24.90;48.20
19060;DHT22;9663;48.996;8.334;2023-08-08T10:14:01;24.80;48.00
19060;DHT22;9663;48.996;8.334;2023-08-08T10:16:32;24.80;48.20
19060;DHT22;9663;48.996;8.334;2023-08-08T10:19:01;24.80;47.60
19060;DHT22;9663;48.996;8.334;2023-08-08T10:21:35;24.80;48.00
19060;DHT22;9663;48.996;8.334;2023-08-08T10:24:07;24.80;48.00
19060;DHT22;9663;48.996;8.334;2023-08-08T10:26:50;24.90;47.80
19060;DHT22;9663;48.996;8.334;2023-08-08T10:29:19;25.00;47.50
19060;DHT22;9663;48.996;8.334;2023-08-08T10:32:04;25.00;47.40
19060;DHT22;9663;48.996;8.334;2023-08-08T10:34:44;25.10;46.70
19060;DHT22;9663;48.996;8.334;2023-08-08T10:37:17;25.10;46.50
19060;DHT22;9663;48.996;8.334;2023-08-08T10:42:31;25.10;46.40
19060;DHT22;9663;48.996;8.334;2023-08-08T10:45:01;25.10;46.80
19060;DHT22;9663;48.996;8.334;2023-08-08T10:47:34;25.20;46.80
19060;DHT22;9663;48.996;8.334;2023-08-08T10:52:55;25.50;45.40
19060;DHT22;9663;48.996;8.334;2023-08-08T10:55:36;25.60;46.00
19060;DHT22;9663;48.996;8.334;2023-08-08T10:58:10;25.80;46.30
19060;DHT22;9663;48.996;8.334;2023-08-08T11:00:41;25.90;45.40
19060;DHT22;9663;48.996;8.334;2023-08-08T11:03:08;26.00;45.80
19060;DHT22;9663;48.996;8.334;2023-08-08T11:05:35;26.00;45.40
19060;DHT22;9663;48.996;8.334;2023-08-08T11:08:04;26.10;44.90
19060;DHT22;9663;48.996;8.334;2023-08-08T11:10:40;26.20;44.10
19060;DHT22;9663;48.996;8.334;2023-08-08T11:13:08;26.20;43.70
19060;DHT22;9663;48.996;8.334;2023-08-08T11:15:35;26.20;44.30
19060;DHT22;9663;48.996;8.334;2023-08-08T11:18:02;26.20;44.40
19060;DHT22;9663;48.996;8.334;2023-08-08T11:20:33;26.30;44.40
19060;DHT22;9663;48.996;8.334;2023-08-08T11:23:01;26.30;43.70
19060;DHT22;9663;48.996;8.334;2023-08-08T11:25:29;26.40;44.00
19060;DHT22;9663;48.996;8.334;2023-08-08T11:27:56;26.50;43.90
19060;DHT22;9663;48.996;8.334;2023-08-08T11:30:24;26.60;44.40
19060;DHT22;9663;48.996;8.334;2023-08-08T11:32:54;26.80;44.30
19060;DHT22;9663;48.996;8.334;2023-08-08T11:35:24;27.20;44.30
19060;DHT22;9663;48.996;8.334;2023-08-08T11:37:52;27.50;43.20
19060;DHT22;9663;48.996;8.334;2023-08-08T11:40:20;27.70;42.30
19060;DHT22;9663;48.996;8.334;2023-08-08T11:42:48;27.70;42.20
19060;DHT22;9663;48.996;8.334;2023-08-08T11:45:16;27.90;42.20
19060;DHT22;9663;48.996;8.334;2023-08-08T11:47:42;28.00;41.60
19060;DHT22;9663;48.996;8.334;2023-08-08T11:50:09;28.00;41.60
19060;DHT22;9663;48.996;8.334;2023-08-08T11:52:41;28.20;41.60
19060;DHT22;9663;48.996;8.334;2023-08-08T11:55:09;28.40;40.50
19060;DHT22;9663;48.996;8.334;2023-08-08T11:57:36;28.50;41.10
19060;DHT22;9663;48.996;8.334;2023-08-08T12:00:10;28.60;41.20
19060;DHT22;9663;48.996;8.334;2023-08-08T12:02:41;28.80;40.50
19060;DHT22;9663;48.996;8.334;2023-08-08T12:05:10;29.00;40.90
19060;DHT22;9663;48.996;8.334;2023-08-08T12:07:38;29.30;40.50
19060;DHT22;9663;48.996;8.334;2023-08-08T12:10:18;29.50;40.60
19060;DHT22;9663;48.996;8.334;2023-08-08T12:12:53;29.70;39.50
19060;DHT22;9663;48.996;8.334;2023-08-08T12:15:20;30.00;39.10
19060;DHT22;9663;48.996;8.334;2023-08-08T12:17:46;30.30;40.50
19060;DHT22;9663;48.996;8.334;2023-08-08T12:20:14;30.80;40.70
19060;DHT22;9663;48.996;8.334;2023-08-08T12:22:40;31.20;39.00
19060;DHT22;9663;48.996;8.334;2023-08-08T12:25:06;31.40;36.70
19060;DHT22;9663;48.996;8.334;2023-08-08T12:27:33;31.70;37.50
19060;DHT22;9663;48.996;8.334;2023-08-08T12:29:59;31.90;36.80
19060;DHT22;9663;48.996;8.334;2023-08-08T12:32:26;32.00;37.00
19060;DHT22;9663;48.996;8.334;2023-08-08T12:34:54;32.20;36.40
19060;DHT22;9663;48.996;8.334;2023-08-08T12:37:22;32.20;36.20
19060;DHT22;9663;48.996;8.334;2023-08-08T12:39:48;32.30;36.00
19060;DHT22;9663;48.996;8.334;2023-08-08T12:42:15;32.40;35.70
19060;DHT22;9663;48.996;8.334;2023-08-08T12:44:41;32.50;35.40
19060;DHT22;9663;48.996;8.334;2023-08-08T12:47:07;32.60;35.00
19060;DHT22;9663;48.996;8.334;2023-08-08T12:49:33;32.60;34.40
19060;DHT22;9663;48.996;8.334;2023-08-08T12:51:58;32.70;35.10
19060;DHT22;9663;48.996;8.334;2023-08-08T12:54:24;32.80;35.10
19060;DHT22;9663;48.996;8.334;2023-08-08T12:56:51;32.90;34.70
19060;DHT22;9663;48.996;8.334;2023-08-08T12:59:17;33.00;34.70
19060;DHT22;9663;48.996;8.334;2023-08-08T13:01:42;33.00;34.40
19060;DHT22;9663;48.996;8.334;2023-08-08T13:04:08;33.10;33.90
19060;DHT22;9663;48.996;8.334;2023-08-08T13:06:34;33.00;33.00
19060;DHT22;9663;48.996;8.334;2023-08-08T13:09:00;33.00;32.90
19060;DHT22;9663;48.996;8.334;2023-08-08T13:11:26;33.00;32.90
19060;DHT22;9663;48.996;8.334;2023-08-08T13:13:52;33.10;33.10
19060;DHT22;9663;48.996;8.334;2023-08-08T13:16:18;33.10;32.80
19060;DHT22;9663;48.996;8.334;2023-08-08T13:18:43;33.10;32.60
19060;DHT22;9663;48.996;8.334;2023-08-08T13:21:09;33.10;33.00
19060;DHT22;9663;48.996;8.334;2023-08-08T13:23:36;33.10;32.50
19060;DHT22;9663;48.996;8.334;2023-08-08T13:26:02;33.00;32.80
19060;DHT22;9663;48.996;8.334;2023-08-08T13:28:29;33.00;32.70
19060;DHT22;9663;48.996;8.334;2023-08-08T13:30:55;33.00;33.10
19060;DHT22;9663;48.996;8.334;2023-08-08T13:33:21;33.20;33.10
19060;DHT22;9663;48.996;8.334;2023-08-08T13:35:47;33.30;32.80
19060;DHT22;9663;48.996;8.334;2023-08-08T13:38:13;33.40;32.00
19060;DHT22;9663;48.996;8.334;2023-08-08T13:40:41;33.20;31.20
19060;DHT22;9663;48.996;8.334;2023-08-08T13:43:07;32.90;30.70
19060;DHT22;9663;48.996;8.334;2023-08-08T13:45:36;32.70;31.30
19060;DHT22;9663;48.996;8.334;2023-08-08T13:48:01;32.50;30.90
19060;DHT22;9663;48.996;8.334;2023-08-08T13:50:27;32.30;31.10
19060;DHT22;9663;48.996;8.334;2023-08-08T13:52:54;32.10;31.20
19060;DHT22;9663;48.996;8.334;2023-08-08T13:55:20;31.90;31.70
19060;DHT22;9663;48.996;8.334;2023-08-08T13:57:46;31.80;31.80
19060;DHT22;9663;48.996;8.334;2023-08-08T14:00:12;31.70;31.60
19060;DHT22;9663;48.996;8.334;2023-08-08T14:02:40;31.50;31.70
19060;DHT22;9663;48.996;8.334;2023-08-08T14:05:06;31.40;31.70
19060;DHT22;9663;48.996;8.334;2023-08-08T14:07:35;31.20;31.10
19060;DHT22;9663;48.996;8.334;2023-08-08T14:10:04;31.10;30.80
19060;DHT22;9663;48.996;8.334;2023-08-08T14:12:31;30.90;31.20
19060;DHT22;9663;48.996;8.334;2023-08-08T14:14:56;30.80;31.40
19060;DHT22;9663;48.996;8.334;2023-08-08T14:17:22;30.80;31.30
19060;DHT22;9663;48.996;8.334;2023-08-08T14:19:48;30.90;31.10
19060;DHT22;9663;48.996;8.334;2023-08-08T14:22:14;31.00;31.20
19060;DHT22;9663;48.996;8.334;2023-08-08T14:24:41;31.10;31.30
19060;DHT22;9663;48.996;8.334;2023-08-08T14:27:08;31.30;31.10
19060;DHT22;9663;48.996;8.334;2023-08-08T14:29:34;31.60;31.20
19060;DHT22;9663;48.996;8.334;2023-08-08T14:31:59;31.90;31.30
19060;DHT22;9663;48.996;8.334;2023-08-08T14:34:33;32.30;31.20
19060;DHT22;9663;48.996;8.334;2023-08-08T14:37:06;32.70;31.30
19060;DHT22;9663;48.996;8.334;2023-08-08T14:39:32;33.20;31.20
19060;DHT22;9663;48.996;8.334;2023-08-08T14:42:01;33.60;31.30
19060;DHT22;9663;48.996;8.334;2023-08-08T14:44:26;34.00;30.80
19060;DHT22;9663;48.996;8.334;2023-08-08T14:46:52;34.50;30.70
19060;DHT22;9663;48.996;8.334;2023-08-08T14:49:18;34.90;30.40
19060;DHT22;9663;48.996;8.334;2023-08-08T14:51:44;35.30;30.30
19060;DHT22;9663;48.996;8.334;2023-08-08T14:54:09;35.70;29.90
19060;DHT22;9663;48.996;8.334;2023-08-08T14:56:35;35.90;29.10
19060;DHT22;9663;48.996;8.334;2023-08-08T14:59:01;36.00;28.50
19060;DHT22;9663;48.996;8.334;2023-08-08T15:01:27;36.10;29.00
19060;DHT22;9663;48.996;8.334;2023-08-08T15:03:56;36.20;29.20
19060;DHT22;9663;48.996;8.334;2023-08-08T15:06:23;36.20;28.20
19060;DHT22;9663;48.996;8.334;2023-08-08T15:08:48;36.00;27.70
19060;DHT22;9663;48.996;8.334;2023-08-08T15:11:15;35.70;27.90
19060;DHT22;9663;48.996;8.334;2023-08-08T15:13:42;35.40;28.00
19060;DHT22;9663;48.996;8.334;2023-08-08T15:16:08;35.10;27.40
19060;DHT22;9663;48.996;8.334;2023-08-08T15:18:34;34.40;26.80
19060;DHT22;9663;48.996;8.334;2023-08-08T15:21:00;33.60;26.80
19060;DHT22;9663;48.996;8.334;2023-08-08T15:23:26;32.80;27.10
19060;DHT22;9663;48.996;8.334;2023-08-08T15:25:52;32.00;27.60
19060;DHT22;9663;48.996;8.334;2023-08-08T15:28:20;31.30;28.10
19060;DHT22;9663;48.996;8.334;2023-08-08T15:30:46;30.80;28.30
19060;DHT22;9663;48.996;8.334;2023-08-08T15:33:12;30.20;28.40
19060;DHT22;9663;48.996;8.334;2023-08-08T15:35:37;29.70;28.80
19060;DHT22;9663;48.996;8.334;2023-08-08T15:38:03;29.40;29.20
19060;DHT22;9663;48.996;8.334;2023-08-08T15:40:29;29.10;29.50
19060;DHT22;9663;48.996;8.334;2023-08-08T15:42:55;29.00;30.10
19060;DHT22;9663;48.996;8.334;2023-08-08T15:45:20;29.10;30.20
19060;DHT22;9663;48.996;8.334;2023-08-08T15:47:46;29.10;30.00
19060;DHT22;9663;48.996;8.334;2023-08-08T15:50:12;29.20;30.30